createdAt,value
2023-02-05T00:01:24.190Z,13.68
2023-02-05T00:03:51.020Z,13.25
2023-02-05T00:06:17.754Z,15.77
2023-02-05T00:08:44.672Z,13.35
2023-02-05T00:11:11.430Z,14.48
2023-02-05T00:13:40.165Z,14.27
2023-02-05T00:16:15.116Z,14.90
2023-02-05T00:18:42.247Z,14.13
2023-02-05T00:21:09.637Z,14.18
2023-02-05T00:23:36.962Z,14.90
2023-02-05T00:26:04.940Z,14.25
2023-02-05T00:28:36.048Z,13.55
2023-02-05T00:31:08.583Z,14.00
2023-02-05T00:33:35.244Z,12.88
2023-02-05T00:36:02.090Z,12.57
2023-02-05T00:38:28.737Z,12.82
2023-02-05T00:40:55.649Z,12.20
2023-02-05T00:43:22.317Z,12.52
2023-02-05T00:45:48.999Z,12.80
2023-02-05T00:48:15.692Z,12.93
2023-02-05T00:50:42.698Z,12.88
2023-02-05T00:53:09.308Z,14.32
2023-02-05T00:55:36.113Z,16.45
2023-02-05T00:58:02.904Z,13.52
2023-02-05T01:00:29.798Z,15.23
2023-02-05T01:02:56.443Z,13.73
2023-02-05T01:05:23.109Z,12.65
2023-02-05T01:07:49.727Z,13.55
2023-02-05T01:10:16.742Z,14.73
2023-02-05T01:12:43.586Z,13.90
2023-02-05T01:15:13.275Z,16.27
2023-02-05T01:17:40.174Z,16.23
2023-02-05T01:20:08.096Z,15.13
2023-02-05T01:22:35.180Z,16.50
2023-02-05T01:25:01.983Z,17.23
2023-02-05T01:27:28.952Z,16.60
2023-02-05T01:29:55.622Z,18.10
2023-02-05T01:32:22.228Z,19.08
2023-02-05T01:34:48.940Z,20.48
2023-02-05T01:37:15.589Z,23.17
2023-02-05T01:39:42.259Z,20.55
2023-02-05T01:42:19.277Z,21.55
2023-02-05T01:45:32.502Z,20.48
2023-02-05T01:48:04.317Z,20.90
2023-02-05T01:50:41.228Z,21.08
2023-02-05T01:53:29.491Z,22.65
2023-02-05T01:56:04.694Z,24.48
2023-02-05T01:58:37.505Z,27.65
2023-02-05T02:01:04.234Z,26.25
2023-02-05T02:03:31.867Z,25.10
2023-02-05T02:05:59.057Z,26.58
2023-02-05T02:08:25.710Z,25.10
2023-02-05T02:10:56.711Z,25.67
2023-02-05T02:13:26.484Z,27.90
2023-02-05T02:15:53.771Z,26.00
2023-02-05T02:18:27.613Z,24.27
2023-02-05T02:21:13.253Z,25.42
2023-02-05T02:24:22.873Z,24.05
2023-02-05T02:27:27.009Z,24.73
2023-02-05T02:30:09.933Z,25.10
2023-02-05T02:32:49.322Z,24.67
2023-02-05T02:35:25.396Z,25.42
2023-02-05T02:38:02.959Z,25.92
2023-02-05T02:40:42.253Z,25.67
2023-02-05T02:43:19.282Z,28.60
2023-02-05T02:46:20.921Z,26.80
2023-02-05T02:48:51.414Z,27.08
2023-02-05T02:51:20.585Z,28.52
2023-02-05T02:53:50.531Z,29.60
2023-02-05T02:56:19.244Z,29.10
2023-02-05T02:58:52.245Z,29.95
2023-02-05T03:01:23.334Z,30.45
2023-02-05T03:03:56.718Z,29.38
2023-02-05T03:06:23.775Z,32.00
2023-02-05T03:09:08.861Z,32.00
2023-02-05T03:11:35.645Z,33.92
2023-02-05T03:14:02.400Z,32.08
2023-02-05T03:16:33.515Z,33.35
2023-02-05T03:19:02.736Z,34.92
2023-02-05T03:21:41.748Z,37.53
2023-02-05T03:24:09.668Z,34.72
2023-02-05T03:26:36.740Z,35.45
2023-02-05T03:29:30.743Z,35.50
2023-02-05T03:32:44.303Z,35.63
2023-02-05T03:35:25.604Z,34.92
2023-02-05T03:38:08.872Z,37.33
2023-02-05T03:40:44.069Z,34.63
2023-02-05T03:43:25.511Z,35.03
2023-02-05T03:46:04.669Z,34.72
2023-02-05T03:48:42.045Z,32.80
2023-02-05T03:51:08.900Z,35.80
2023-02-05T03:54:01.291Z,36.15
2023-02-05T03:56:53.141Z,36.20
2023-02-05T03:59:21.573Z,34.42
2023-02-05T04:01:50.504Z,35.42
2023-02-05T04:04:18.250Z,33.88
2023-02-05T04:06:48.609Z,36.33
2023-02-05T04:09:15.943Z,37.38
2023-02-05T04:11:43.536Z,36.20
2023-02-05T04:14:11.114Z,38.35
2023-02-05T04:16:39.865Z,36.58
2023-02-05T04:19:07.457Z,36.90
2023-02-05T04:21:34.192Z,40.65
2023-02-05T04:24:01.210Z,39.10
2023-02-05T04:26:28.278Z,40.92
2023-02-05T04:29:02.397Z,41.33
2023-02-05T04:31:31.908Z,43.08
2023-02-05T04:34:00.386Z,42.50
2023-02-05T04:36:27.553Z,40.85
2023-02-05T04:38:54.248Z,41.90
2023-02-05T04:41:22.125Z,42.08
2023-02-05T04:43:48.760Z,41.00
2023-02-05T04:46:15.414Z,41.35
2023-02-05T04:48:42.174Z,41.38
2023-02-05T04:51:13.491Z,40.42
2023-02-05T04:53:40.642Z,42.15
2023-02-05T04:56:15.887Z,42.53
2023-02-05T04:58:43.594Z,42.00
2023-02-05T05:01:15.999Z,43.63
2023-02-05T05:03:43.523Z,39.53
2023-02-05T05:06:10.484Z,37.80
2023-02-05T05:08:37.332Z,39.17
2023-02-05T05:11:12.946Z,38.88
2023-02-05T05:13:39.947Z,35.85
2023-02-05T05:16:07.976Z,37.72
2023-02-05T05:18:35.048Z,35.40
2023-02-05T05:21:02.307Z,35.65
2023-02-05T05:23:29.072Z,35.60
2023-02-05T05:25:55.733Z,33.88
2023-02-05T05:28:22.434Z,34.97
2023-02-05T05:30:49.360Z,31.35
2023-02-05T05:33:16.597Z,33.45
2023-02-05T05:35:43.241Z,29.02
2023-02-05T05:38:09.921Z,31.17
2023-02-05T05:40:54.926Z,30.20
2023-02-05T05:43:40.122Z,27.95
2023-02-05T05:46:07.927Z,25.77
2023-02-05T05:48:34.906Z,26.10
2023-02-05T05:51:01.579Z,25.83
2023-02-05T05:53:28.377Z,26.48
2023-02-05T05:55:54.999Z,25.40
2023-02-05T05:58:21.681Z,23.88
2023-02-05T06:00:48.354Z,24.75
2023-02-05T06:03:15.374Z,23.63
2023-02-05T06:05:42.365Z,22.67
2023-02-05T06:08:09.021Z,22.58
2023-02-05T06:10:36.140Z,22.30
2023-02-05T06:13:02.789Z,21.52
2023-02-05T06:15:29.430Z,21.73
2023-02-05T06:17:56.076Z,21.50
2023-02-05T06:20:22.861Z,20.05
2023-02-05T06:22:49.590Z,19.90
2023-02-05T06:25:16.300Z,20.00
2023-02-05T06:27:42.976Z,19.45
2023-02-05T06:30:10.514Z,20.45
2023-02-05T06:32:37.392Z,19.50
2023-02-05T06:35:04.423Z,18.60
2023-02-05T06:37:46.144Z,18.80
2023-02-05T06:40:15.425Z,19.30
2023-02-05T06:42:42.155Z,19.85
2023-02-05T06:45:10.030Z,20.83
2023-02-05T06:47:37.634Z,19.10
2023-02-05T06:50:05.661Z,19.15
2023-02-05T06:52:32.316Z,18.38
2023-02-05T06:54:58.960Z,19.42
2023-02-05T06:57:25.721Z,21.67
2023-02-05T06:59:52.349Z,20.75
2023-02-05T07:02:19.122Z,20.48
2023-02-05T07:04:46.190Z,20.80
2023-02-05T07:07:13.590Z,21.67
2023-02-05T07:09:40.288Z,22.60
2023-02-05T07:12:07.269Z,23.13
2023-02-05T07:14:40.908Z,19.88
2023-02-05T07:17:08.342Z,21.52
2023-02-05T07:19:35.910Z,21.33
2023-02-05T07:22:02.586Z,21.75
2023-02-05T07:24:29.279Z,22.00
2023-02-05T07:26:55.917Z,20.73
2023-02-05T07:29:22.738Z,21.77
2023-02-05T07:31:50.642Z,21.20
2023-02-05T07:34:17.408Z,20.40
2023-02-05T07:36:44.154Z,20.98
2023-02-05T07:39:10.954Z,21.63
2023-02-05T07:41:37.614Z,20.98
2023-02-05T07:44:05.219Z,19.42
2023-02-05T07:46:32.040Z,17.30
2023-02-05T07:48:58.743Z,15.90
2023-02-05T07:51:26.796Z,14.70
2023-02-05T07:53:53.989Z,13.30
2023-02-05T07:56:21.669Z,6.93
2023-02-05T07:58:48.774Z,6.55
2023-02-05T08:01:15.560Z,3.95
2023-02-05T08:03:42.346Z,3.63
2023-02-05T08:06:13.812Z,2.47
2023-02-05T08:08:41.509Z,2.50
2023-02-05T08:11:08.264Z,2.95
2023-02-05T08:13:34.973Z,2.00
2023-02-05T08:16:05.998Z,2.20
2023-02-05T08:18:32.867Z,2.10
2023-02-05T08:20:59.765Z,1.50
2023-02-05T08:23:26.948Z,1.52
2023-02-05T08:25:58.123Z,1.17
2023-02-05T08:28:27.133Z,1.17
2023-02-05T08:30:53.864Z,0.93
2023-02-05T08:33:20.551Z,1.00
2023-02-05T08:35:47.313Z,1.25
2023-02-05T08:38:14.196Z,1.05
2023-02-05T08:40:41.268Z,0.90
2023-02-05T08:43:08.462Z,0.85
2023-02-05T08:45:35.889Z,1.20
2023-02-05T08:48:02.883Z,0.98
2023-02-05T08:50:29.662Z,1.15
2023-02-05T08:52:56.407Z,1.73
2023-02-05T08:55:23.107Z,1.77
2023-02-05T08:57:49.717Z,1.20
2023-02-05T09:00:16.750Z,1.50
2023-02-05T09:02:43.719Z,1.45
2023-02-05T09:05:10.568Z,1.80
2023-02-05T09:07:39.326Z,1.80
2023-02-05T09:10:12.160Z,1.45
2023-02-05T09:12:39.396Z,1.70
2023-02-05T09:15:07.456Z,2.38
2023-02-05T09:17:34.195Z,1.67
2023-02-05T09:20:01.139Z,1.92
2023-02-05T09:22:27.823Z,1.73
2023-02-05T09:24:54.566Z,1.73
2023-02-05T09:27:21.326Z,1.83
2023-02-05T09:29:48.062Z,3.53
2023-02-05T09:32:14.852Z,1.85
2023-02-05T09:34:41.632Z,2.25
2023-02-05T09:37:08.341Z,1.63
2023-02-05T09:40:18.541Z,2.00
2023-02-05T09:42:38.119Z,2.35
2023-02-05T09:45:16.611Z,1.65
2023-02-05T09:48:02.683Z,2.65
2023-02-05T09:50:30.353Z,1.90
2023-02-05T09:53:02.260Z,2.30
2023-02-05T09:55:37.139Z,2.63
2023-02-05T09:58:17.023Z,1.92
2023-02-05T10:00:50.569Z,2.25
2023-02-05T10:03:44.085Z,2.35
2023-02-05T10:06:21.124Z,2.47
2023-02-05T10:08:58.807Z,1.90
2023-02-05T10:11:31.683Z,2.28
2023-02-05T10:14:25.514Z,2.35
2023-02-05T10:17:02.345Z,1.98
2023-02-05T10:19:48.572Z,1.90
2023-02-05T10:22:35.171Z,2.30
2023-02-05T10:25:36.305Z,2.17
2023-02-05T10:28:25.333Z,2.80
2023-02-05T10:31:12.376Z,4.03
2023-02-05T10:33:55.961Z,2.53
2023-02-05T10:36:26.923Z,2.25
2023-02-05T10:38:56.328Z,2.67
2023-02-05T10:41:30.334Z,2.53
2023-02-05T10:44:16.034Z,2.65
2023-02-05T10:46:51.428Z,2.70
2023-02-05T10:49:25.238Z,3.08
2023-02-05T10:52:15.932Z,2.58
2023-02-05T10:54:43.284Z,2.40
2023-02-05T10:57:16.059Z,3.22
2023-02-05T11:00:00.228Z,3.50
2023-02-05T11:02:39.162Z,3.05
2023-02-05T11:05:21.470Z,2.70
2023-02-05T11:07:51.080Z,3.20
2023-02-05T11:10:22.151Z,3.63
2023-02-05T11:12:51.833Z,3.15
2023-02-05T11:15:22.472Z,4.55
2023-02-05T11:18:21.757Z,3.28
2023-02-05T11:20:56.967Z,3.38
2023-02-05T11:23:25.426Z,3.85
2023-02-05T11:25:56.910Z,2.95
2023-02-05T11:28:31.969Z,4.20
2023-02-05T11:31:23.794Z,3.90
2023-02-05T11:33:51.150Z,3.00
2023-02-05T11:36:22.574Z,2.83
2023-02-05T11:38:52.522Z,3.80
2023-02-05T11:41:47.899Z,2.78
2023-02-05T11:44:37.121Z,4.15
2023-02-05T11:47:03.954Z,3.35
2023-02-05T11:49:34.879Z,2.90
2023-02-05T11:52:12.568Z,3.97
2023-02-05T11:54:44.086Z,2.83
2023-02-05T11:57:19.670Z,2.75
2023-02-05T12:00:02.175Z,2.80
2023-02-05T12:02:34.292Z,3.83
2023-02-05T12:05:13.741Z,3.28
2023-02-05T12:07:56.502Z,3.83
2023-02-05T12:10:43.378Z,2.67
2023-02-05T12:13:44.099Z,3.00
2023-02-05T12:16:42.625Z,3.05
2023-02-05T12:19:20.522Z,2.78
2023-02-05T12:22:11.084Z,4.90
2023-02-05T12:25:01.654Z,2.28
2023-02-05T12:27:49.714Z,3.08
2023-02-05T12:30:26.093Z,3.35
2023-02-05T12:33:15.070Z,2.85
2023-02-05T12:35:47.434Z,3.53
2023-02-05T12:38:33.079Z,3.42
2023-02-05T12:41:18.170Z,3.65
2023-02-05T12:43:49.891Z,2.25
2023-02-05T12:46:55.714Z,2.38
2023-02-05T12:49:44.055Z,2.92
2023-02-05T12:52:25.746Z,2.72
2023-02-05T12:55:02.739Z,2.83
2023-02-05T12:57:38.934Z,2.55
2023-02-05T13:00:22.944Z,2.60
2023-02-05T13:03:27.327Z,2.70
2023-02-05T13:06:06.045Z,2.40
2023-02-05T13:08:49.148Z,6.13
2023-02-05T13:11:25.568Z,1.90
2023-02-05T13:14:06.972Z,2.40
2023-02-05T13:16:45.674Z,2.15
2023-02-05T13:19:30.932Z,2.25
2023-02-05T13:22:20.140Z,3.60
2023-02-05T13:25:11.410Z,2.22
2023-02-05T13:28:04.256Z,2.38
2023-02-05T13:30:39.118Z,2.17
2023-02-05T13:33:07.999Z,2.63
2023-02-05T13:35:50.840Z,2.47
2023-02-05T13:38:42.398Z,2.10
2023-02-05T13:41:28.134Z,2.17
2023-02-05T13:44:16.931Z,2.72
2023-02-05T13:46:54.841Z,2.47
2023-02-05T13:50:15.467Z,1.73
2023-02-05T13:53:10.651Z,3.03
2023-02-05T13:55:59.190Z,3.30
2023-02-05T13:58:35.664Z,4.40
2023-02-05T14:01:07.525Z,4.85
2023-02-05T14:03:36.545Z,3.63
2023-02-05T14:06:21.912Z,3.85
2023-02-05T14:09:02.639Z,4.03
2023-02-05T14:11:48.841Z,3.17
2023-02-05T14:14:39.338Z,4.30
2023-02-05T14:17:27.526Z,4.30
2023-02-05T14:19:57.108Z,5.05
2023-02-05T14:22:47.082Z,3.63
2023-02-05T14:25:36.408Z,4.15
2023-02-05T14:28:23.956Z,3.78
2023-02-05T14:30:57.273Z,4.05
2023-02-05T14:33:30.570Z,3.47
2023-02-05T14:36:17.036Z,3.83
2023-02-05T14:38:56.598Z,4.00
2023-02-05T14:41:27.964Z,5.88
2023-02-05T14:44:02.561Z,3.85
2023-02-05T14:46:39.720Z,3.75
2023-02-05T14:49:20.603Z,3.90
2023-02-05T14:51:59.982Z,2.72
2023-02-05T14:54:33.969Z,7.50
2023-02-05T14:57:25.238Z,3.67
2023-02-05T15:00:02.338Z,3.13
2023-02-05T15:03:05.782Z,3.25
2023-02-05T15:05:44.668Z,3.17
2023-02-05T15:08:15.570Z,3.45
2023-02-05T15:10:54.568Z,4.40
2023-02-05T15:13:22.300Z,3.17
2023-02-05T15:16:15.858Z,3.55
2023-02-05T15:18:51.697Z,3.03
2023-02-05T15:21:29.635Z,3.50
2023-02-05T15:24:01.992Z,3.05
2023-02-05T15:27:01.229Z,4.65
2023-02-05T15:29:30.492Z,2.80
2023-02-05T15:32:15.742Z,4.30
2023-02-05T15:35:00.488Z,5.43
2023-02-05T15:37:32.226Z,3.65
2023-02-05T15:40:21.510Z,3.03
2023-02-05T15:42:53.592Z,4.43
2023-02-05T15:45:27.132Z,4.05
2023-02-05T15:48:03.176Z,3.22
2023-02-05T15:50:31.186Z,2.88
2023-02-05T15:52:58.586Z,4.03
2023-02-05T15:55:27.620Z,3.67
2023-02-05T15:58:04.436Z,4.05
2023-02-05T16:00:33.658Z,3.10
2023-02-05T16:03:02.647Z,3.95
2023-02-05T16:05:31.253Z,4.22
2023-02-05T16:08:01.732Z,3.40
2023-02-05T16:10:31.788Z,4.07
2023-02-05T16:13:02.754Z,3.92
2023-02-05T16:15:36.711Z,4.35
2023-02-05T16:18:07.017Z,3.95
2023-02-05T16:20:37.782Z,4.38
2023-02-05T16:23:26.312Z,3.57
2023-02-05T16:26:05.293Z,4.30
2023-02-05T16:28:41.086Z,4.43
2023-02-05T16:31:14.020Z,3.92
2023-02-05T16:33:45.850Z,3.97
2023-02-05T16:36:21.347Z,4.43
2023-02-05T16:39:15.049Z,4.72
2023-02-05T16:41:43.961Z,4.97
2023-02-05T16:44:27.910Z,4.28
2023-02-05T16:47:14.724Z,5.30
2023-02-05T16:49:43.192Z,3.55
2023-02-05T16:52:32.713Z,4.00
2023-02-05T16:55:05.662Z,4.22
2023-02-05T16:57:36.989Z,4.72
2023-02-05T17:00:25.785Z,4.35
2023-02-05T17:02:55.355Z,4.25
2023-02-05T17:05:41.903Z,4.75
2023-02-05T17:08:12.115Z,4.30
2023-02-05T17:10:54.189Z,4.03
2023-02-05T17:13:40.597Z,3.83
2023-02-05T17:16:29.635Z,3.55
2023-02-05T17:18:59.355Z,3.28
2023-02-05T17:21:36.868Z,3.78
2023-02-05T17:24:09.025Z,3.28
2023-02-05T17:26:40.658Z,3.45
2023-02-05T17:31:39.244Z,4.65
2023-02-05T17:34:06.438Z,5.20
2023-02-05T17:36:33.197Z,3.97
2023-02-05T17:38:59.882Z,3.53
2023-02-05T17:41:53.741Z,5.20
2023-02-05T17:44:20.530Z,5.07
2023-02-05T17:46:47.219Z,3.70
2023-02-05T17:49:13.908Z,4.68
2023-02-05T17:51:42.344Z,5.03
2023-02-05T17:54:25.310Z,3.65
2023-02-05T17:56:55.202Z,3.83
2023-02-05T17:59:24.571Z,3.50
2023-02-05T18:01:52.462Z,5.65
2023-02-05T18:04:19.589Z,4.43
2023-02-05T18:06:48.473Z,3.45
2023-02-05T18:09:16.399Z,3.40
2023-02-05T18:11:43.105Z,4.85
2023-02-05T18:14:10.560Z,3.40
2023-02-05T18:16:37.573Z,4.05
2023-02-05T18:19:04.495Z,4.70
2023-02-05T18:21:31.151Z,5.63
2023-02-05T18:23:57.765Z,3.67
2023-02-05T18:26:26.937Z,4.82
2023-02-05T18:28:54.127Z,3.33
2023-02-05T18:31:20.874Z,4.28
2023-02-05T18:33:48.936Z,5.32
2023-02-05T18:36:16.007Z,4.13
2023-02-05T18:38:45.718Z,3.95
2023-02-05T18:41:18.057Z,4.57
2023-02-05T18:43:44.946Z,4.65
2023-02-05T18:46:16.692Z,5.53
2023-02-05T18:48:45.609Z,4.97
2023-02-05T18:51:14.545Z,5.38
2023-02-05T18:53:43.115Z,5.07
2023-02-05T18:56:13.994Z,3.88
2023-02-05T18:58:41.706Z,4.03
2023-02-05T19:01:16.423Z,4.68
2023-02-05T19:03:43.598Z,4.15
2023-02-05T19:06:12.362Z,5.88
2023-02-05T19:08:39.046Z,4.60
2023-02-05T19:11:11.767Z,5.28
2023-02-05T19:13:39.070Z,3.95
2023-02-05T19:16:07.325Z,4.72
2023-02-05T19:18:34.164Z,4.47
2023-02-05T19:21:09.480Z,4.13
2023-02-05T19:23:37.036Z,5.45
2023-02-05T19:26:10.040Z,3.80
2023-02-05T19:28:37.415Z,4.32
2023-02-05T19:31:05.345Z,4.28
2023-02-05T19:33:32.899Z,4.90
2023-02-05T19:36:01.115Z,4.20
2023-02-05T19:38:28.218Z,4.22
2023-02-05T19:40:54.923Z,4.47
2023-02-05T19:43:21.807Z,4.97
2023-02-05T19:45:48.876Z,4.78
2023-02-05T19:48:16.023Z,4.53
2023-02-05T19:50:42.840Z,4.32
2023-02-05T19:53:10.241Z,5.90
2023-02-05T19:55:36.969Z,5.07
2023-02-05T19:58:03.734Z,4.15
2023-02-05T20:00:30.378Z,4.82
2023-02-05T20:02:57.426Z,4.47
2023-02-05T20:05:24.326Z,4.55
2023-02-05T20:07:52.166Z,4.95
2023-02-05T20:10:19.441Z,4.57
2023-02-05T20:12:48.472Z,4.93
2023-02-05T20:15:15.694Z,4.25
2023-02-05T20:17:43.585Z,4.30
2023-02-05T20:20:22.213Z,5.32
2023-02-05T20:22:54.956Z,5.25
2023-02-05T20:25:21.811Z,5.03
2023-02-05T20:27:48.486Z,4.97
2023-02-05T20:30:33.961Z,5.05
2023-02-05T20:33:00.741Z,5.35
2023-02-05T20:35:27.330Z,5.32
2023-02-05T20:37:54.011Z,4.90
2023-02-05T20:40:20.618Z,6.85
2023-02-05T20:42:47.221Z,7.00
2023-02-05T20:45:13.899Z,5.50
2023-02-05T20:47:40.479Z,4.13
2023-02-05T20:50:08.298Z,5.50
2023-02-05T20:52:35.001Z,5.22
2023-02-05T20:55:01.583Z,5.63
2023-02-05T20:57:28.288Z,5.00
2023-02-05T20:59:55.438Z,4.13
2023-02-05T21:02:23.521Z,5.30
2023-02-05T21:04:52.478Z,6.25
2023-02-05T21:07:19.447Z,4.80
2023-02-05T21:09:46.079Z,5.80
2023-02-05T21:12:12.698Z,6.95
2023-02-05T21:14:39.371Z,6.55
2023-02-05T21:17:09.150Z,5.53
2023-02-05T21:19:35.951Z,5.68
2023-02-05T21:22:02.722Z,3.92
2023-02-05T21:24:29.404Z,4.80
2023-02-05T21:26:56.096Z,6.35
2023-02-05T21:29:22.727Z,4.82
2023-02-05T21:31:52.851Z,4.22
2023-02-05T21:34:26.010Z,4.50
2023-02-05T21:36:54.883Z,4.20
2023-02-05T21:39:21.934Z,5.47
2023-02-05T21:41:50.607Z,5.70
2023-02-05T21:44:17.422Z,5.00
2023-02-05T21:46:44.186Z,6.10
2023-02-05T21:49:11.512Z,6.43
2023-02-05T21:51:38.203Z,6.22
2023-02-05T21:54:06.101Z,6.13
2023-02-05T21:56:35.242Z,5.93
2023-02-05T21:59:02.182Z,6.25
2023-02-05T22:01:31.462Z,6.63
2023-02-05T22:04:04.092Z,5.03
2023-02-05T22:06:34.150Z,5.78
2023-02-05T22:09:01.824Z,5.50
2023-02-05T22:11:28.802Z,5.47
2023-02-05T22:13:56.352Z,8.18
2023-02-05T22:16:25.808Z,6.00
2023-02-05T22:18:53.479Z,5.68
2023-02-05T22:21:29.060Z,6.63
2023-02-05T22:23:58.215Z,6.18
2023-02-05T22:26:28.525Z,6.30
2023-02-05T22:28:59.578Z,6.28
2023-02-05T22:31:27.957Z,5.73
2023-02-05T22:33:55.338Z,6.55
2023-02-05T22:36:25.352Z,6.43
2023-02-05T22:38:53.219Z,5.97
2023-02-05T22:41:35.272Z,6.35
2023-02-05T22:44:04.049Z,5.68
2023-02-05T22:46:33.082Z,5.88
2023-02-05T22:49:01.565Z,6.30
2023-02-05T22:51:36.732Z,5.47
2023-02-05T22:54:05.046Z,3.80
2023-02-05T22:56:32.041Z,4.40
2023-02-05T22:59:01.372Z,5.20
2023-02-05T23:01:33.487Z,8.25
2023-02-05T23:04:02.265Z,5.97
2023-02-05T23:06:35.196Z,6.18
2023-02-05T23:09:05.751Z,5.35
2023-02-05T23:11:33.487Z,4.57
2023-02-05T23:14:01.820Z,5.40
2023-02-05T23:16:31.466Z,5.65
2023-02-05T23:19:07.367Z,5.07
2023-02-05T23:21:35.904Z,5.47
2023-02-05T23:24:03.209Z,5.03
2023-02-05T23:26:39.332Z,4.88
2023-02-05T23:29:06.721Z,4.70
2023-02-05T23:31:33.551Z,5.57
2023-02-05T23:34:00.498Z,4.88
2023-02-05T23:36:27.229Z,5.90
2023-02-05T23:38:53.977Z,5.28
2023-02-05T23:41:36.303Z,4.68
2023-02-05T23:44:21.385Z,6.75
2023-02-05T23:46:49.386Z,4.60
2023-02-05T23:49:17.075Z,5.20
2023-02-05T23:51:43.856Z,5.10
2023-02-05T23:54:12.051Z,4.65
2023-02-05T23:56:39.957Z,5.32
2023-02-05T23:59:07.987Z,5.05
